Time;durP1;ratioP1;P1;durP2;ratioP2;P2;SDS_P1;SDS_P2;PMS_P1;PMS_P2;Temp;Humidity;BMP_temperature;BMP_pressure;BME280_temperature;BME280_humidity;BME280_pressure;Samples;Min_cycle;Max_cycle;Signal;HPM_P1;HPM_P2
2021/12/20 00:00:50;;;;;;;0.52;0.52;;;;;;;6.79;83.24;102118.22;5097623;29;20101;-82
2021/12/20 00:03:21;;;;;;;0.40;0.40;;;;;;;6.75;83.34;102121.63;5056319;29;20095;-82
2021/12/20 00:05:51;;;;;;;1.75;1.65;;;;;;;6.92;82.44;102112.25;5083054;29;20335;-82
2021/12/20 00:08:22;;;;;;;0.73;0.73;;;;;;;6.82;82.21;102112.16;5079302;29;20371;-82
2021/12/20 00:10:52;;;;;;;0.60;0.60;;;;;;;6.83;82.38;102127.81;5084767;29;20047;-80
2021/12/20 00:13:23;;;;;;;4.32;1.88;;;;;;;6.84;82.35;102116.50;5101715;29;20060;-81
2021/12/20 00:15:55;;;;;;;0.75;0.75;;;;;;;6.83;82.74;102114.75;5054875;29;20036;-81
2021/12/20 00:18:25;;;;;;;1.45;1.40;;;;;;;6.89;81.83;102112.25;5081184;29;20035;-80
2021/12/20 00:20:56;;;;;;;0.40;0.40;;;;;;;6.92;82.22;102111.38;5061202;29;20033;-80
2021/12/20 00:23:26;;;;;;;0.85;0.85;;;;;;;7.05;81.78;102115.00;5080302;29;20207;-80
2021/12/20 00:25:57;;;;;;;1.20;1.20;;;;;;;6.92;82.12;102120.06;5080423;29;20047;-81
2021/12/20 00:28:27;;;;;;;0.77;0.77;;;;;;;6.83;82.34;102114.75;5097220;29;20040;-81
2021/12/20 00:30:58;;;;;;;0.70;0.70;;;;;;;6.85;81.99;102120.00;5047897;29;20449;-82
2021/12/20 00:33:33;;;;;;;4.13;1.77;;;;;;;6.74;82.72;102117.25;5062348;29;20115;-82
2021/12/20 00:36:08;;;;;;;0.68;0.68;;;;;;;6.71;82.80;102118.09;5087265;29;20036;-81
2021/12/20 00:41:28;;;;;;;1.50;1.40;;;;;;;6.74;82.77;102101.59;5127711;29;20079;-81
2021/12/20 00:43:59;;;;;;;1.20;1.08;;;;;;;6.60;83.55;102099.72;5109861;29;20059;-82
2021/12/20 00:46:30;;;;;;;6.45;1.00;;;;;;;6.60;83.93;102097.13;5088775;29;20114;-82
2021/12/20 00:49:00;;;;;;;0.70;0.70;;;;;;;6.71;82.93;102109.41;5100414;29;20081;-81
2021/12/20 00:51:31;;;;;;;0.88;0.88;;;;;;;6.69;83.10;102095.47;5085323;29;20032;-82
2021/12/20 00:54:01;;;;;;;0.68;0.68;;;;;;;6.75;82.93;102101.66;5083727;29;20107;-82
2021/12/20 00:56:31;;;;;;;0.50;0.50;;;;;;;6.71;82.97;102105.06;5082728;29;20321;-82
2021/12/20 00:59:02;;;;;;;0.55;0.55;;;;;;;6.68;83.16;102099.84;5082293;29;20028;-83
2021/12/20 01:01:33;;;;;;;0.50;0.50;;;;;;;6.61;83.33;102098.88;5083325;29;20506;-83
2021/12/20 01:04:03;;;;;;;0.88;0.88;;;;;;;6.68;82.92;102104.16;5076964;29;20119;-83
2021/12/20 01:06:34;;;;;;;0.38;0.38;;;;;;;6.84;82.33;102098.25;5118568;29;20020;-83
2021/12/20 01:09:05;;;;;;;1.15;1.13;;;;;;;6.79;82.73;102113.00;5061186;29;20043;-82
2021/12/20 01:11:39;;;;;;;2.17;1.70;;;;;;;6.79;82.36;102099.94;5067414;29;20036;-83
2021/12/20 01:14:12;;;;;;;1.08;0.98;;;;;;;6.80;82.59;102100.81;5066007;29;20579;-83
2021/12/20 01:16:43;;;;;;;1.02;1.02;;;;;;;6.78;82.31;102106.03;5067030;29;20126;-83
2021/12/20 01:19:13;;;;;;;1.02;1.02;;;;;;;6.69;82.04;102103.31;5097646;29;20059;-83
2021/12/20 01:21:44;;;;;;;0.60;0.60;;;;;;;6.59;82.92;102107.56;5082232;29;20039;-83
2021/12/20 01:24:14;;;;;;;0.50;0.50;;;;;;;6.74;82.60;102114.66;5097364;29;20436;-83
2021/12/20 01:26:45;;;;;;;0.68;0.68;;;;;;;6.81;82.46;102100.84;5066175;29;20088;-83
2021/12/20 01:29:15;;;;;;;0.50;0.50;;;;;;;6.83;82.16;102109.53;5081099;29;20039;-82
2021/12/20 01:31:46;;;;;;;0.82;0.82;;;;;;;6.77;82.40;102114.69;5081160;29;20040;-82
2021/12/20 01:34:16;;;;;;;0.98;0.98;;;;;;;6.82;82.50;102107.78;5049118;29;20087;-82
2021/12/20 01:36:47;;;;;;;0.50;0.50;;;;;;;6.73;82.54;102102.50;5069275;29;20040;-82
2021/12/20 01:39:18;;;;;;;0.40;0.40;;;;;;;6.82;82.23;102112.16;5061698;29;20147;-82
2021/12/20 01:41:52;;;;;;;0.40;0.40;;;;;;;6.76;82.54;102108.63;5055852;29;20032;-81
2021/12/20 01:44:23;;;;;;;0.40;0.40;;;;;;;6.89;81.47;102111.34;5097974;29;20040;-81
2021/12/20 01:46:53;;;;;;;0.60;0.60;;;;;;;6.77;82.12;102114.69;5082923;29;20109;-81
2021/12/20 01:49:24;;;;;;;0.70;0.70;;;;;;;6.92;81.75;102106.16;5082026;29;20130;-82
2021/12/20 01:54:29;;;;;;;0.50;0.50;;;;;;;6.92;81.46;102099.19;5081218;29;20481;-82
2021/12/20 01:57:00;;;;;;;0.50;0.50;;;;;;;6.97;81.27;102094.03;5081004;29;20162;-82
2021/12/20 01:59:30;;;;;;;0.50;0.50;;;;;;;6.78;81.13;102091.22;5079229;29;20127;-82
2021/12/20 02:02:01;;;;;;;1.27;1.08;;;;;;;6.74;81.97;102093.78;5080203;29;20091;-82
2021/12/20 02:04:40;;;;;;;2.53;1.42;;;;;;;6.80;82.41;102090.38;5079328;29;20032;-82
2021/12/20 02:07:33;;;;;;;0.45;0.45;;;;;;;6.78;82.26;102096.44;5097009;29;20035;-82
2021/12/20 02:10:04;;;;;;;4.82;1.90;;;;;;;6.84;81.90;102093.03;5079391;29;20055;-82
2021/12/20 02:12:35;;;;;;;1.90;1.80;;;;;;;6.81;81.43;102090.41;5097684;29;20032;-81
2021/12/20 02:15:06;;;;;;;1.45;1.13;;;;;;;6.66;80.73;102098.03;5048642;29;20047;-82
2021/12/20 02:17:39;;;;;;;0.77;0.77;;;;;;;6.86;81.02;102104.38;5081581;29;20036;-82
2021/12/20 02:20:21;;;;;;;0.50;0.50;;;;;;;6.90;81.60;102103.53;5063816;29;20048;-81
2021/12/20 02:22:57;;;;;;;1.25;1.25;;;;;;;6.75;81.51;102100.75;5078570;29;20119;-82
2021/12/20 02:25:29;;;;;;;1.45;1.20;;;;;;;6.84;81.39;102093.03;5080581;29;20635;-81
2021/12/20 02:28:06;;;;;;;1.08;1.08;;;;;;;6.56;81.03;102094.47;5120573;29;20051;-82
2021/12/20 02:36:54;;;;;;;0.47;0.47;;;;;;;6.63;80.59;102096.28;5064734;29;20040;-81
2021/12/20 02:39:22;;;;;;;1.60;1.50;;;;;;;6.66;81.75;102091.09;5112200;29;20366;-82
2021/12/20 02:41:53;;;;;;;0.40;0.40;;;;;;;6.59;81.45;102084.06;5088733;29;20549;-82
2021/12/20 02:44:27;;;;;;;1.05;1.05;;;;;;;6.61;81.10;102087.59;5096832;29;20102;-81
2021/12/20 02:49:32;;;;;;;1.65;1.55;;;;;;;6.68;81.33;102081.56;5076006;29;20044;-82
2021/12/20 02:52:07;;;;;;;0.82;0.82;;;;;;;6.66;81.74;102085.00;5087377;29;20036;-81
2021/12/20 02:54:37;;;;;;;11.00;2.35;;;;;;;6.71;81.16;102089.41;5095319;29;20040;-82
2021/12/20 02:57:08;;;;;;;0.60;0.60;;;;;;;6.67;81.75;102086.75;5079861;29;20651;-82
2021/12/20 02:59:38;;;;;;;2.67;2.45;;;;;;;6.59;81.52;102086.69;5095156;29;20044;-81
2021/12/20 03:02:10;;;;;;;0.50;0.50;;;;;;;6.68;81.28;102078.06;5084460;29;20039;-82
2021/12/20 03:04:41;;;;;;;0.82;0.82;;;;;;;6.64;82.08;102084.13;5100481;29;20080;-81
2021/12/20 03:07:19;;;;;;;1.17;1.02;;;;;;;6.60;81.90;102091.03;5096301;29;20043;-80
2021/12/20 03:09:56;;;;;;;0.60;0.60;;;;;;;6.64;81.80;102084.13;5072661;29;20449;-81
2021/12/20 03:12:30;;;;;;;0.60;0.60;;;;;;;6.73;81.38;102090.31;5065581;29;20080;-82
2021/12/20 03:15:10;;;;;;;0.40;0.40;;;;;;;6.72;81.50;102092.91;5064634;29;20044;-82
2021/12/20 03:17:40;;;;;;;0.50;0.50;;;;;;;6.85;81.01;102088.72;5080918;29;20088;-82
2021/12/20 03:20:14;;;;;;;0.40;0.40;;;;;;;6.77;80.97;102091.22;5097173;29;20048;-82
2021/12/20 03:22:45;;;;;;;0.40;0.40;;;;;;;6.74;80.47;102086.84;5096212;29;20035;-82
2021/12/20 03:25:15;;;;;;;0.52;0.52;;;;;;;6.68;80.20;102086.78;5095758;29;20588;-81
2021/12/20 03:27:46;;;;;;;0.93;0.93;;;;;;;6.62;79.97;102094.53;5061435;29;20048;-81
2021/12/20 03:30:16;;;;;;;0.47;0.47;;;;;;;6.70;80.41;102097.22;5064269;29;20032;-80
2021/12/20 03:32:47;;;;;;;0.65;0.65;;;;;;;6.68;80.56;102093.72;5080856;29;20047;-81
2021/12/20 03:35:17;;;;;;;0.40;0.40;;;;;;;6.70;79.82;102094.63;5078564;29;20191;-82
2021/12/20 03:37:48;;;;;;;0.68;0.68;;;;;;;6.67;79.92;102091.97;5082827;29;20761;-80
2021/12/20 03:40:18;;;;;;;2.40;2.15;;;;;;;6.58;80.53;102101.44;5112647;29;20047;-82
2021/12/20 03:42:49;;;;;;;0.47;0.47;;;;;;;6.65;81.22;102093.72;5082135;29;20028;-82
2021/12/20 03:45:19;;;;;;;3.15;2.72;;;;;;;6.74;80.44;102096.41;5063915;29;20546;-83
2021/12/20 03:47:50;;;;;;;0.68;0.65;;;;;;;6.71;80.72;102094.63;5064554;29;20033;-81
2021/12/20 03:50:24;;;;;;;0.65;0.65;;;;;;;6.73;80.01;102092.91;5048210;29;20040;-82
2021/12/20 03:52:54;;;;;;;0.70;0.70;;;;;;;6.64;80.21;102091.94;5081301;29;20036;-82
2021/12/20 03:55:25;;;;;;;3.92;3.22;;;;;;;6.63;80.94;102096.28;5065176;29;20060;-82
2021/12/20 03:57:55;;;;;;;0.47;0.47;;;;;;;6.65;81.10;102093.72;5050600;29;20130;-80
2021/12/20 04:00:26;;;;;;;0.50;0.50;;;;;;;6.62;80.83;102097.13;5065760;29;20091;-81
2021/12/20 04:02:56;;;;;;;1.38;1.17;;;;;;;6.67;81.13;102091.97;5096349;29;20028;-82
2021/12/20 04:05:27;;;;;;;0.57;0.57;;;;;;;6.59;80.39;102091.91;5076103;29;20043;-82
2021/12/20 04:07:57;;;;;;;0.50;0.50;;;;;;;6.57;80.52;102091.88;5097725;29;20036;-83
2021/12/20 04:10:27;;;;;;;0.95;0.95;;;;;;;6.53;81.51;102102.28;5068627;29;20047;-80
2021/12/20 04:12:58;;;;;;;0.47;0.47;;;;;;;6.54;81.37;102091.84;5071321;29;20032;-82
2021/12/20 04:15:29;;;;;;;0.80;0.80;;;;;;;6.54;80.40;102088.34;5056239;29;20071;-82
2021/12/20 04:17:59;;;;;;;9.07;1.42;;;;;;;6.54;80.37;102086.63;5104184;29;20062;-82
2021/12/20 04:20:31;;;;;;;1.20;1.17;;;;;;;6.52;81.09;102088.34;5078741;29;20067;-80
2021/12/20 04:23:01;;;;;;;0.77;0.77;;;;;;;6.57;80.53;102094.47;5087581;29;20059;-83
2021/12/20 04:25:32;;;;;;;1.05;1.05;;;;;;;6.49;80.58;102103.94;5085148;29;20075;-82
2021/12/20 04:28:02;;;;;;;0.55;0.55;;;;;;;6.48;80.57;102096.09;5069879;29;20250;-81
2021/12/20 04:30:33;;;;;;;0.40;0.40;;;;;;;6.57;80.71;102089.25;5087881;29;20044;-82
2021/12/20 04:33:04;;;;;;;0.73;0.73;;;;;;;6.59;80.67;102090.16;5125457;29;20028;-82
2021/12/20 04:35:34;;;;;;;15.80;1.95;;;;;;;6.59;80.65;102089.28;5063692;29;20040;-82
2021/12/20 04:38:08;;;;;;;0.85;0.85;;;;;;;6.64;80.41;102091.94;5106454;29;20027;-82
2021/12/20 04:40:38;;;;;;;0.68;0.68;;;;;;;6.54;80.62;102102.28;5088182;29;20096;-82
2021/12/20 04:43:09;;;;;;;0.40;0.40;;;;;;;6.63;80.61;102100.63;5069539;29;20568;-81
2021/12/20 04:45:40;;;;;;;1.10;1.02;;;;;;;6.63;80.63;102098.03;5087961;29;20096;-82
2021/12/20 04:48:10;;;;;;;0.63;0.63;;;;;;;6.64;80.85;102095.44;5112491;29;20036;-82
2021/12/20 04:50:41;;;;;;;0.80;0.80;;;;;;;6.57;79.40;102106.66;5092639;29;20036;-83
2021/12/20 04:53:11;;;;;;;0.40;0.40;;;;;;;6.63;80.23;102104.09;5068156;29;20028;-82
2021/12/20 04:55:41;;;;;;;1.77;1.30;;;;;;;6.61;80.45;102098.88;5099216;29;20047;-83
2021/12/20 04:58:12;;;;;;;0.60;0.60;;;;;;;6.64;80.01;102097.16;5051298;29;20016;-83
2021/12/20 05:00:44;;;;;;;0.70;0.70;;;;;;;6.60;79.94;102097.13;5099391;29;20572;-81
2021/12/20 05:03:14;;;;;;;1.67;1.58;;;;;;;6.63;80.14;102095.41;5082315;29;20036;-82
2021/12/20 05:05:45;;;;;;;0.93;0.93;;;;;;;6.54;80.32;102097.06;5053001;29;20134;-82
2021/12/20 05:08:15;;;;;;;0.85;0.85;;;;;;;6.72;79.76;102095.53;5084898;29;20040;-81
2021/12/20 05:10:46;;;;;;;3.72;1.83;;;;;;;6.77;78.81;102099.94;5066842;29;20044;-82
2021/12/20 05:13:16;;;;;;;0.40;0.40;;;;;;;6.64;79.60;102103.25;5063269;29;20095;-82
2021/12/20 05:15:47;;;;;;;3.65;1.55;;;;;;;6.47;78.96;102108.28;5097288;29;20044;-83
2021/12/20 05:18:17;;;;;;;0.65;0.65;;;;;;;6.49;79.75;102092.66;5114464;29;20155;-81
2021/12/20 05:20:48;;;;;;;0.52;0.52;;;;;;;6.45;80.09;102084.78;5103522;29;20036;-82
2021/12/20 05:23:19;;;;;;;0.40;0.40;;;;;;;6.52;79.95;102087.47;5066114;29;20041;-81
2021/12/20 05:25:49;;;;;;;1.58;1.25;;;;;;;6.60;79.43;102088.44;5050754;29;20059;-83
2021/12/20 05:28:20;;;;;;;0.40;0.40;;;;;;;6.63;79.16;102096.28;5066410;29;20024;-81
2021/12/20 05:30:52;;;;;;;1.30;1.25;;;;;;;6.51;77.89;102090.94;5083394;29;20055;-81
2021/12/20 05:33:23;;;;;;;0.52;0.52;;;;;;;6.42;78.64;102095.19;5098188;29;20314;-82
2021/12/20 05:35:54;;;;;;;0.43;0.43;;;;;;;6.59;78.91;102090.16;5081274;29;20390;-83
2021/12/20 05:38:25;;;;;;;1.67;1.58;;;;;;;6.55;79.34;102090.09;5067831;29;20040;-83
2021/12/20 05:40:55;;;;;;;0.47;0.47;;;;;;;6.52;79.79;102093.56;5057725;29;20366;-81
2021/12/20 05:43:26;;;;;;;0.68;0.68;;;;;;;6.53;79.37;102090.09;5101969;29;20036;-82
2021/12/20 05:45:56;;;;;;;0.60;0.60;;;;;;;6.67;78.00;102091.97;5068220;29;20040;-82
2021/12/20 05:48:27;;;;;;;0.70;0.70;;;;;;;6.58;79.63;102098.84;5085172;29;20087;-83
2021/12/20 05:50:58;;;;;;;0.50;0.50;;;;;;;6.49;79.32;102092.66;5103878;29;20581;-83
2021/12/20 05:53:28;;;;;;;1.48;1.38;;;;;;;6.50;79.33;102095.25;5073999;29;20036;-83
2021/12/20 05:55:59;;;;;;;3.40;1.95;;;;;;;6.50;78.80;102095.25;5121980;29;20486;-82
2021/12/20 05:58:30;;;;;;;0.75;0.75;;;;;;;6.44;78.96;102096.09;5075080;29;20460;-83
2021/12/20 06:01:00;;;;;;;0.70;0.70;;;;;;;6.53;78.40;102100.53;5088564;29;20036;-82
2021/12/20 06:03:33;;;;;;;0.77;0.77;;;;;;;6.48;77.40;102109.13;5057471;29;20036;-86
2021/12/20 06:06:04;;;;;;;0.40;0.40;;;;;;;6.49;78.86;102114.38;5088163;29;20039;-83
2021/12/20 06:08:35;;;;;;;2.72;1.85;;;;;;;6.51;79.00;102112.66;5105806;29;20040;-83
2021/12/20 06:11:05;;;;;;;0.77;0.77;;;;;;;6.48;79.52;102115.25;5083952;29;20176;-83
2021/12/20 06:13:36;;;;;;;1.25;1.25;;;;;;;6.40;78.73;102116.88;5097067;29;20028;-83
2021/12/20 06:16:06;;;;;;;6.05;2.63;;;;;;;6.50;79.25;102115.25;5053192;29;20058;-83
2021/12/20 06:18:37;;;;;;;0.70;0.70;;;;;;;6.46;79.45;102116.94;5098068;29;20039;-83
2021/12/20 06:21:08;;;;;;;0.90;0.90;;;;;;;6.47;79.29;102121.31;5097193;29;20389;-83
2021/12/20 06:23:38;;;;;;;1.10;1.10;;;;;;;6.52;79.31;102124.84;5069861;29;20430;-83
2021/12/20 06:26:09;;;;;;;0.60;0.60;;;;;;;6.46;79.39;102119.56;5053813;29;20569;-83
2021/12/20 06:28:39;;;;;;;2.00;1.90;;;;;;;6.46;79.28;102115.22;5070512;29;20103;-83
2021/12/20 06:31:10;;;;;;;0.95;0.95;;;;;;;6.48;79.37;102123.06;5053366;29;20151;-82
2021/12/20 06:33:40;;;;;;;1.70;1.52;;;;;;;6.54;79.22;102120.53;5061690;29;20138;-84
2021/12/20 06:36:11;;;;;;;1.10;1.05;;;;;;;6.54;79.38;102117.94;5081141;29;20096;-84
2021/12/20 06:38:45;;;;;;;1.33;1.23;;;;;;;6.54;79.41;102123.13;5110538;29;20115;-84
2021/12/20 06:41:18;;;;;;;1.00;0.95;;;;;;;6.54;79.55;102130.97;5078566;29;20130;-84
2021/12/20 06:43:49;;;;;;;0.75;0.75;;;;;;;6.57;78.96;102130.13;5074350;29;20040;-84
2021/12/20 06:46:21;;;;;;;1.25;1.13;;;;;;;6.56;79.20;102126.66;5078683;29;20572;-84
2021/12/20 06:48:51;;;;;;;0.52;0.52;;;;;;;6.56;79.05;102126.66;5095329;29;20519;-84
2021/12/20 06:51:22;;;;;;;2.60;2.40;;;;;;;6.59;79.63;102131.03;5063803;29;20130;-83
2021/12/20 06:53:55;;;;;;;0.70;0.70;;;;;;;6.60;79.07;102128.41;5064331;29;20058;-84
2021/12/20 06:56:25;;;;;;;0.50;0.50;;;;;;;6.51;79.11;102122.22;5063036;29;20051;-84
2021/12/20 06:58:56;;;;;;;1.55;1.38;;;;;;;6.52;79.01;102127.44;5102999;29;20032;-84
2021/12/20 07:01:26;;;;;;;2.97;1.05;;;;;;;6.51;79.35;102130.91;5094415;29;20589;-84
2021/12/20 07:03:58;;;;;;;0.60;0.60;;;;;;;6.47;79.26;102136.97;5079391;29;20032;-83
2021/12/20 07:06:29;;;;;;;0.82;0.82;;;;;;;6.57;79.67;102144.03;5065838;29;20599;-83
2021/12/20 07:09:00;;;;;;;0.90;0.90;;;;;;;6.51;78.98;102136.13;5101484;29;20032;-84
2021/12/20 07:11:30;;;;;;;0.68;0.68;;;;;;;6.58;78.82;102139.69;5063578;29;20432;-84
2021/12/20 07:14:01;;;;;;;0.88;0.88;;;;;;;6.59;79.03;102146.66;5099708;29;20024;-83
2021/12/20 07:16:33;;;;;;;0.45;0.45;;;;;;;6.49;79.02;102150.88;5072806;29;20090;-83
2021/12/20 07:19:06;;;;;;;0.73;0.73;;;;;;;6.53;79.07;102147.47;5054338;29;20039;-84
2021/12/20 07:21:37;;;;;;;;;;;;;;;6.55;78.68;102147.47;5064169;29;20039;-83
2021/12/20 07:24:07;;;;;;;7.32;1.95;;;;;;;6.49;79.01;102157.84;5078196;29;20364;-83
2021/12/20 07:26:41;;;;;;;0.50;0.50;;;;;;;6.58;79.26;102147.53;5078687;29;20107;-82
2021/12/20 07:29:11;;;;;;;3.45;1.40;;;;;;;6.60;78.85;102151.91;5064023;29;20056;-83
2021/12/20 07:31:42;;;;;;;0.93;0.93;;;;;;;6.55;79.01;102155.28;5079164;29;20063;-83
2021/12/20 07:34:13;;;;;;;0.45;0.45;;;;;;;6.55;78.97;102165.72;5064069;29;20056;-83
2021/12/20 07:36:43;;;;;;;0.60;0.60;;;;;;;6.50;79.38;102163.06;5095481;29;20044;-82
2021/12/20 07:39:14;;;;;;;0.68;0.68;;;;;;;6.59;78.81;102163.19;5064199;29;20120;-83
2021/12/20 07:41:45;;;;;;;0.47;0.47;;;;;;;6.59;79.16;102157.97;5046949;29;20074;-83
2021/12/20 07:44:17;;;;;;;1.77;1.67;;;;;;;6.57;78.71;102164.88;5067067;29;20038;-83
2021/12/20 07:46:47;;;;;;;0.55;0.55;;;;;;;6.60;78.87;102162.31;5052893;29;20028;-83
2021/12/20 07:49:18;;;;;;;1.05;0.80;;;;;;;6.57;79.03;102159.66;5068140;29;20040;-83
2021/12/20 07:51:51;;;;;;;1.30;1.30;;;;;;;6.59;79.03;102162.31;5098371;29;20032;-83
2021/12/20 07:54:22;;;;;;;0.75;0.75;;;;;;;6.64;78.62;102160.63;5065207;29;20332;-83
2021/12/20 07:56:52;;;;;;;0.73;0.73;;;;;;;6.57;78.75;102164.88;5122110;29;20496;-83
2021/12/20 07:59:23;;;;;;;1.52;1.42;;;;;;;6.55;78.97;102161.41;5074647;29;20055;-83
2021/12/20 08:01:54;;;;;;;0.50;0.50;;;;;;;6.57;79.17;102161.41;5094939;29;20043;-84
2021/12/20 08:04:24;;;;;;;0.60;0.60;;;;;;;6.55;78.72;102166.63;5078821;29;20033;-83
2021/12/20 08:06:55;;;;;;;1.67;1.58;;;;;;;6.52;79.12;102168.31;5118214;29;20036;-84
2021/12/20 08:09:26;;;;;;;0.65;0.65;;;;;;;6.58;78.98;102165.78;5066023;29;20099;-84
2021/12/20 08:11:56;;;;;;;1.08;0.85;;;;;;;6.44;78.44;102170.81;5098004;29;20033;-84
2021/12/20 08:14:27;;;;;;;0.65;0.65;;;;;;;6.50;78.69;102173.50;5096542;29;20056;-83
2021/12/20 08:16:57;;;;;;;0.75;0.75;;;;;;;6.55;78.55;102176.16;5066149;29;20028;-83
2021/12/20 08:19:28;;;;;;;3.13;1.48;;;;;;;6.51;78.67;102170.03;5050381;29;20301;-84
2021/12/20 08:21:58;;;;;;;0.50;0.50;;;;;;;6.48;78.64;102177.81;5115002;29;20055;-84
2021/12/20 08:24:29;;;;;;;6.45;2.75;;;;;;;6.47;79.00;102176.06;5086589;29;20036;-84
2021/12/20 08:26:59;;;;;;;0.70;0.70;;;;;;;6.48;78.67;102176.94;5067125;29;20039;-84
2021/12/20 08:29:30;;;;;;;1.20;1.10;;;;;;;6.52;78.59;102176.13;5087404;29;20040;-84
2021/12/20 08:32:02;;;;;;;0.50;0.50;;;;;;;6.54;78.77;102180.50;5089924;29;20030;-84
2021/12/20 08:34:33;;;;;;;1.15;1.15;;;;;;;6.48;78.78;102185.66;5095939;29;20360;-84
2021/12/20 08:37:03;;;;;;;6.68;2.47;;;;;;;6.50;78.29;102180.44;5066343;29;20024;-84
2021/12/20 08:39:37;;;;;;;3.42;2.67;;;;;;;6.45;77.87;102178.63;5100312;29;20036;-84
2021/12/20 08:42:08;;;;;;;2.05;1.58;;;;;;;6.44;78.25;102184.75;5085749;29;20024;-83
2021/12/20 08:44:39;;;;;;;1.13;0.93;;;;;;;6.33;78.35;102185.41;5083666;29;20044;-83
2021/12/20 08:47:09;;;;;;;1.30;1.30;;;;;;;6.47;78.78;102189.13;5069523;29;20039;-84
2021/12/20 08:49:40;;;;;;;1.05;1.05;;;;;;;6.41;78.33;102194.22;5049179;29;20052;-84
2021/12/20 08:52:11;;;;;;;3.20;1.95;;;;;;;6.47;78.19;102183.91;5097395;29;20060;-84
2021/12/20 08:54:42;;;;;;;1.42;1.27;;;;;;;6.49;78.32;102196.94;5111514;28;20076;-84
2021/12/20 08:57:12;;;;;;;1.13;1.13;;;;;;;6.45;78.15;102196.03;5105775;29;20079;-84
2021/12/20 08:59:43;;;;;;;1.05;1.05;;;;;;;6.45;78.18;102194.28;5067087;29;20235;-84
2021/12/20 09:02:14;;;;;;;0.90;0.77;;;;;;;6.42;78.02;102198.59;5105350;29;20036;-84
2021/12/20 09:04:45;;;;;;;0.98;0.98;;;;;;;6.42;78.81;102201.19;5067673;29;20044;-84
2021/12/20 09:07:16;;;;;;;0.60;0.60;;;;;;;6.33;78.04;102203.66;5066416;29;20064;-83
2021/12/20 09:09:48;;;;;;;1.42;1.30;;;;;;;6.33;78.62;102206.28;5082424;29;20056;-84
2021/12/20 09:12:21;;;;;;;3.30;2.63;;;;;;;6.22;78.02;102209.63;5049564;29;20336;-84
2021/12/20 09:14:52;;;;;;;0.80;0.80;;;;;;;6.21;78.17;102213.06;5065153;29;20051;-84
2021/12/20 09:17:23;;;;;;;1.25;1.25;;;;;;;6.21;77.86;102207.84;5081208;29;20036;-84
2021/12/20 09:19:54;;;;;;;0.40;0.40;;;;;;;6.27;78.23;102213.16;5096920;29;20047;-83
2021/12/20 09:22:27;;;;;;;3.42;1.33;;;;;;;6.33;78.74;102211.47;5083184;29;20040;-83
2021/12/20 09:24:58;;;;;;;0.60;0.60;;;;;;;6.21;77.78;102212.19;5079727;29;20040;-83
2021/12/20 09:27:28;;;;;;;2.33;1.33;;;;;;;6.22;77.08;102214.84;5083573;29;20055;-84
2021/12/20 09:29:59;;;;;;;2.50;2.30;;;;;;;6.22;78.36;102213.94;5065088;29;20052;-83
2021/12/20 09:32:29;;;;;;;0.98;0.93;;;;;;;6.27;78.39;102220.13;5049505;29;20032;-83
2021/12/20 09:35:00;;;;;;;0.52;0.52;;;;;;;6.31;77.87;102219.28;5084547;29;20040;-83
2021/12/20 09:37:30;;;;;;;2.03;1.95;;;;;;;6.25;77.93;102225.28;5105465;29;20051;-84
2021/12/20 09:40:03;;;;;;;0.50;0.50;;;;;;;6.04;77.18;102224.97;5077612;29;20456;-83
2021/12/20 09:42:34;;;;;;;1.35;1.15;;;;;;;5.94;78.12;102227.38;5095806;29;20043;-83
2021/12/20 09:45:05;;;;;;;11.60;1.15;;;;;;;6.06;78.47;102238.91;5080666;29;20036;-84
2021/12/20 09:47:35;;;;;;;8.25;2.55;;;;;;;5.99;78.08;102230.97;5081530;29;20054;-84
2021/12/20 09:50:07;;;;;;;2.40;2.20;;;;;;;5.93;77.47;102228.22;5049808;29;20040;-83
2021/12/20 09:52:38;;;;;;;1.45;1.40;;;;;;;6.12;78.27;102229.44;5095954;29;20067;-84
2021/12/20 09:55:11;;;;;;;5.25;2.80;;;;;;;6.03;77.22;102238.84;5064449;29;20060;-83
2021/12/20 09:57:47;;;;;;;0.55;0.55;;;;;;;5.83;77.32;102232.41;5096445;29;20028;-84
2021/12/20 10:00:20;;;;;;;1.73;1.63;;;;;;;5.55;78.21;102230.16;5049435;29;20036;-84
2021/12/20 10:02:51;;;;;;;1.00;0.85;;;;;;;5.78;78.11;102227.97;5077480;29;20040;-84
2021/12/20 10:05:21;;;;;;;1.00;1.00;;;;;;;5.94;78.41;102224.78;5063498;29;20040;-84
2021/12/20 10:07:53;;;;;;;0.73;0.73;;;;;;;6.03;77.96;102233.63;5081412;29;20115;-84
2021/12/20 10:10:34;;;;;;;16.67;2.25;;;;;;;6.08;77.97;102232.84;5081113;29;20548;-84
2021/12/20 10:13:05;;;;;;;3.08;2.13;;;;;;;6.01;77.91;102232.72;5079218;29;20032;-84
2021/12/20 10:15:38;;;;;;;0.80;0.80;;;;;;;6.02;77.99;102227.56;5049434;29;20569;-84
2021/12/20 10:18:13;;;;;;;1.08;1.08;;;;;;;6.01;77.98;102237.94;5096330;29;20292;-84
2021/12/20 10:20:53;;;;;;;6.68;1.35;;;;;;;5.60;76.38;102239.81;5079419;29;20091;-84
2021/12/20 10:23:32;;;;;;;0.60;0.60;;;;;;;5.92;78.61;102242.09;5098983;29;20039;-83
2021/12/20 10:26:13;;;;;;;1.60;1.58;;;;;;;6.01;78.05;102248.34;5094381;29;20462;-83
2021/12/20 10:28:44;;;;;;;1.17;1.17;;;;;;;5.98;78.49;102231.81;5085985;29;20024;-84
2021/12/20 10:31:21;;;;;;;0.57;0.57;;;;;;;5.99;77.71;102238.78;5079555;29;20103;-84
2021/12/20 10:34:00;;;;;;;12.55;2.53;;;;;;;5.99;78.78;102236.16;5063915;29;20147;-84
2021/12/20 10:36:33;;;;;;;4.25;2.03;;;;;;;6.10;78.10;102232.88;5079259;29;20036;-84
2021/12/20 10:39:04;;;;;;;0.60;0.60;;;;;;;6.18;77.87;102228.66;5095037;29;20075;-84
2021/12/20 10:41:37;;;;;;;0.50;0.50;;;;;;;6.11;77.77;102232.91;5065353;29;20060;-83
2021/12/20 10:44:17;;;;;;;2.42;1.75;;;;;;;6.13;78.44;102228.59;5094645;29;20157;-84
2021/12/20 10:46:54;;;;;;;2.38;2.13;;;;;;;6.18;78.15;102231.25;5079838;29;20050;-84
2021/12/20 10:49:29;;;;;;;1.80;1.70;;;;;;;6.24;78.06;102233.94;5088840;29;20055;-84
2021/12/20 10:51:59;;;;;;;1.45;1.45;;;;;;;6.16;77.86;102229.50;5057773;29;20574;-84
2021/12/20 10:54:32;;;;;;;2.03;1.85;;;;;;;6.22;78.40;102229.56;5082192;29;20036;-84
2021/12/20 10:57:05;;;;;;;0.70;0.70;;;;;;;6.21;78.13;102227.81;5084520;29;20107;-84
2021/12/20 10:59:37;;;;;;;1.25;1.25;;;;;;;6.24;77.85;102230.47;5077640;29;20048;-84
2021/12/20 11:05:01;;;;;;;2.30;2.13;;;;;;;6.24;78.33;102223.53;5063074;29;20047;-84
2021/12/20 11:10:07;;;;;;;3.95;2.72;;;;;;;6.31;78.07;102224.50;5070240;29;20079;-84
2021/12/20 11:12:38;;;;;;;1.02;1.02;;;;;;;6.24;77.98;102220.91;5079664;29;20378;-84
2021/12/20 11:15:12;;;;;;;0.80;0.80;;;;;;;6.26;78.45;102220.97;5096204;29;20171;-84
2021/12/20 11:17:45;;;;;;;1.15;1.08;;;;;;;6.25;78.78;102220.06;5074270;29;20080;-84
2021/12/20 11:20:20;;;;;;;0.82;0.82;;;;;;;6.34;78.21;102223.66;5095818;29;20572;-84
2021/12/20 11:23:02;;;;;;;2.00;1.90;;;;;;;6.25;78.35;102220.06;5094285;29;20698;-84
2021/12/20 11:25:34;;;;;;;1.75;1.45;;;;;;;6.27;78.36;102218.38;5062234;29;20425;-84
2021/12/20 11:28:04;;;;;;;3.30;1.80;;;;;;;6.32;77.92;102214.97;5080150;29;20553;-83
2021/12/20 11:30:35;;;;;;;2.80;1.83;;;;;;;6.26;78.35;102216.63;5094353;29;20044;-84
2021/12/20 11:33:06;;;;;;;1.48;1.38;;;;;;;6.32;78.31;102220.19;5079080;29;20647;-84
2021/12/20 11:35:36;;;;;;;3.28;3.00;;;;;;;6.29;78.07;102216.66;5063198;29;20078;-84
2021/12/20 11:38:07;;;;;;;0.57;0.57;;;;;;;6.13;75.11;102217.28;5079101;29;20168;-84
2021/12/20 11:40:38;;;;;;;2.53;1.58;;;;;;;5.85;72.69;102224.63;5063409;29;20071;-84
2021/12/20 11:43:08;;;;;;;0.80;0.80;;;;;;;5.90;74.46;102217.78;5062952;29;20608;-84
2021/12/20 11:45:39;;;;;;;3.17;1.65;;;;;;;5.96;76.39;102207.44;5079088;29;20055;-84
2021/12/20 11:48:13;;;;;;;5.10;0.80;;;;;;;6.02;77.56;102211.03;5048773;29;20032;-84
2021/12/20 11:50:44;;;;;;;1.95;1.40;;;;;;;6.10;77.66;102209.41;5047436;29;20056;-84
2021/12/20 11:53:16;;;;;;;0.98;0.98;;;;;;;6.07;76.05;102201.56;5092581;29;20032;-84
2021/12/20 11:55:53;;;;;;;0.50;0.50;;;;;;;6.01;74.21;102198.84;5063060;29;20719;-83
2021/12/20 11:58:30;;;;;;;1.70;1.08;;;;;;;6.08;76.51;102211.13;5048269;29;20028;-84
2021/12/20 12:01:04;;;;;;;1.10;1.10;;;;;;;6.11;76.62;102200.75;5088853;29;20044;-84
2021/12/20 12:03:38;;;;;;;1.48;1.45;;;;;;;6.09;76.75;102200.75;5093447;29;20027;-83
2021/12/20 12:06:13;;;;;;;19.92;1.25;;;;;;;6.12;74.36;102199.91;5078402;29;20412;-84
2021/12/20 12:08:51;;;;;;;0.82;0.82;;;;;;;6.24;76.62;102202.66;5062851;29;20028;-84
2021/12/20 12:11:24;;;;;;;1.02;1.02;;;;;;;6.26;76.88;102200.13;5106251;29;20048;-84
2021/12/20 12:16:57;;;;;;;0.50;0.50;;;;;;;6.21;74.45;102193.94;5121395;29;19966;-84